Sperling, Canada
Current Conditions -  °F | °C
As of 7:19 AM on Thursday 30 Oct 2014 (Local Time) from CYWG Reporting Station
Overcast Overcast  
Wind Chill: 24°   Ceiling: 2400
Heat Index: 34°   Visibility: 12mi
Dew Point: 30°   Wind: 15mph
Humidity: 87%   Direction: 350°N
Pressure: 30.2"   Gusts: NA
Location:  49.52°N, 97.7°W
Report Text: CYWG 301219Z 35013KT 12SM SCT011 OVC024 01/M01 A3020 RMK SF3SC5 SLP240
Loading
Personal Weather Stations






























Interactive Weather Map
Tropical Storm Tracking
New forecast layout! Learn more

10-Day Weather Forecast

Advertisements
Track Severe Weather on mobile